createdAt,value
2018-11-25T00:39:48.706Z,29.30
2018-11-25T00:42:24.417Z,24.67
2018-11-25T00:44:59.279Z,25.67
2018-11-25T00:47:32.384Z,26.20
2018-11-25T00:50:06.988Z,25.43
2018-11-25T00:52:39.974Z,25.23
2018-11-25T00:55:15.631Z,25.40
2018-11-25T00:57:56.894Z,25.40
2018-11-25T01:00:40.498Z,25.73
2018-11-25T01:03:11.990Z,25.03
2018-11-25T01:05:50.266Z,25.50
2018-11-25T01:08:22.204Z,24.47
2018-11-25T01:10:54.350Z,23.60
2018-11-25T01:13:33.267Z,28.10
2018-11-25T01:16:07.807Z,30.33
2018-11-25T01:18:40.734Z,28.20
2018-11-25T01:21:16.507Z,25.87
2018-11-25T01:23:51.208Z,25.10
2018-11-25T01:26:25.560Z,25.20
2018-11-25T01:28:57.366Z,26.23
2018-11-25T01:31:29.661Z,28.50
2018-11-25T01:34:06.121Z,26.80
2018-11-25T01:36:39.474Z,24.70
2018-11-25T01:39:16.759Z,25.67
2018-11-25T01:41:48.797Z,27.87
2018-11-25T01:44:20.419Z,25.87
2018-11-25T01:46:55.664Z,25.67
2018-11-25T01:49:33.451Z,26.70
2018-11-25T01:52:08.185Z,28.90
2018-11-25T01:54:40.899Z,26.67
2018-11-25T01:57:19.062Z,30.17
2018-11-25T01:59:52.121Z,29.87
2018-11-25T02:02:26.522Z,29.27
2018-11-25T02:05:01.764Z,30.00
2018-11-25T02:07:37.003Z,30.30
2018-11-25T02:10:17.072Z,30.27
2018-11-25T02:12:51.180Z,28.67
2018-11-25T02:15:23.631Z,32.40
2018-11-25T02:17:55.041Z,27.77
2018-11-25T02:20:25.850Z,31.40
2018-11-25T02:22:59.068Z,26.83
2018-11-25T02:25:30.800Z,28.40
2018-11-25T02:28:04.190Z,30.10
2018-11-25T02:30:37.984Z,29.50
2018-11-25T02:33:08.449Z,28.10
2018-11-25T02:35:40.045Z,29.00
2018-11-25T02:38:12.415Z,27.37
2018-11-25T02:40:45.318Z,26.83
2018-11-25T02:43:17.114Z,26.90
2018-11-25T02:45:48.062Z,28.50
2018-11-25T02:48:19.341Z,29.50
2018-11-25T02:50:51.600Z,26.37
2018-11-25T02:53:22.856Z,29.90
2018-11-25T02:55:56.684Z,28.80
2018-11-25T02:58:28.328Z,26.97
2018-11-25T03:01:01.822Z,28.87
2018-11-25T03:03:34.826Z,30.10
2018-11-25T03:06:09.495Z,29.03
2018-11-25T03:08:40.739Z,31.40
2018-11-25T03:11:14.347Z,26.87
2018-11-25T03:13:46.729Z,26.60
2018-11-25T03:16:18.284Z,28.07
2018-11-25T03:18:51.928Z,24.80
2018-11-25T03:21:27.988Z,26.73
2018-11-25T03:24:01.727Z,27.10
2018-11-25T03:26:32.897Z,26.50
2018-11-25T03:29:06.289Z,26.30
2018-11-25T03:31:38.457Z,30.55
2018-11-25T03:34:11.114Z,27.63
2018-11-25T03:36:41.587Z,27.60
2018-11-25T03:39:20.278Z,27.20
2018-11-25T03:41:53.515Z,21.90
2018-11-25T03:44:29.857Z,25.37
2018-11-25T03:47:00.603Z,25.70
2018-11-25T03:49:33.384Z,26.77
2018-11-25T03:52:05.763Z,26.90
2018-11-25T03:54:38.937Z,24.97
2018-11-25T03:57:15.593Z,24.30
2018-11-25T03:59:52.907Z,23.67
2018-11-25T04:02:25.143Z,21.77
2018-11-25T04:05:00.418Z,21.93
2018-11-25T04:07:37.718Z,24.07
2018-11-25T04:10:16.231Z,26.20
2018-11-25T04:12:54.368Z,27.00
2018-11-25T04:15:24.695Z,27.33
2018-11-25T04:17:59.070Z,24.80
2018-11-25T04:20:35.317Z,28.47
2018-11-25T04:23:12.207Z,25.57
2018-11-25T04:25:50.617Z,24.70
2018-11-25T04:28:29.100Z,26.40
2018-11-25T04:31:04.060Z,26.30
2018-11-25T04:33:35.033Z,26.90
2018-11-25T04:36:10.461Z,24.57
2018-11-25T04:38:44.306Z,25.67
2018-11-25T04:41:15.881Z,25.00
2018-11-25T04:43:48.551Z,25.23
2018-11-25T04:46:20.570Z,24.90
2018-11-25T04:48:52.178Z,25.07
2018-11-25T04:51:25.106Z,28.33
2018-11-25T04:53:59.772Z,27.93
2018-11-25T04:56:31.238Z,24.90
2018-11-25T04:59:10.015Z,24.97
2018-11-25T05:01:45.148Z,26.43
2018-11-25T05:04:19.387Z,24.00
2018-11-25T05:06:52.019Z,26.77
2018-11-25T05:09:25.252Z,26.00
2018-11-25T05:12:01.219Z,25.40
2018-11-25T05:14:33.324Z,25.60
2018-11-25T05:17:07.497Z,27.03
2018-11-25T05:19:40.299Z,27.17
2018-11-25T05:22:12.152Z,25.13
2018-11-25T05:24:46.527Z,26.83
2018-11-25T05:27:22.463Z,27.67
2018-11-25T05:30:05.296Z,24.83
2018-11-25T05:32:51.820Z,24.90
2018-11-25T05:35:30.871Z,26.47
2018-11-25T05:38:03.016Z,24.63
2018-11-25T05:40:44.836Z,28.13
2018-11-25T05:43:19.356Z,23.60
2018-11-25T05:45:57.599Z,23.70
2018-11-25T05:48:36.807Z,27.83
2018-11-25T05:51:09.825Z,27.30
2018-11-25T05:53:45.491Z,24.50
2018-11-25T05:56:20.478Z,22.77
2018-11-25T05:58:51.464Z,23.80
2018-11-25T06:01:25.662Z,22.53
2018-11-25T06:04:01.129Z,27.10
2018-11-25T06:06:33.486Z,20.77
2018-11-25T06:09:09.719Z,21.20
2018-11-25T06:11:53.146Z,20.20
2018-11-25T06:14:33.459Z,23.10
2018-11-25T06:17:09.893Z,21.73
2018-11-25T06:19:51.822Z,26.23
2018-11-25T06:22:24.257Z,22.90
2018-11-25T06:24:59.976Z,21.67
2018-11-25T06:27:43.002Z,22.63
2018-11-25T06:30:24.115Z,22.03
2018-11-25T06:33:00.151Z,21.97
2018-11-25T06:35:36.892Z,22.03
2018-11-25T06:38:13.834Z,23.10
2018-11-25T06:40:58.627Z,21.43
2018-11-25T06:43:42.059Z,21.13
2018-11-25T06:46:19.638Z,20.53
2018-11-25T06:49:00.273Z,21.97
2018-11-25T06:51:58.491Z,23.37
2018-11-25T06:54:32.973Z,21.40
2018-11-25T06:57:09.995Z,22.90
2018-11-25T06:59:47.982Z,21.53
2018-11-25T07:02:26.348Z,24.53
2018-11-25T07:05:08.622Z,26.48
2018-11-25T07:07:49.324Z,26.50
2018-11-25T07:10:28.192Z,24.07
2018-11-25T07:13:09.050Z,22.40
2018-11-25T07:15:43.739Z,22.40
2018-11-25T07:18:25.506Z,21.70
2018-11-25T07:20:58.172Z,21.57
2018-11-25T07:23:32.097Z,22.50
2018-11-25T07:26:03.842Z,24.27
2018-11-25T07:28:39.501Z,23.70
2018-11-25T07:31:15.693Z,23.17
2018-11-25T07:33:50.480Z,23.10
2018-11-25T07:36:27.363Z,23.93
2018-11-25T07:39:11.890Z,27.03
2018-11-25T07:41:55.230Z,24.10
2018-11-25T07:50:34.082Z,17.47
2018-11-25T07:53:16.529Z,28.57
2018-11-25T07:56:00.614Z,25.50
2018-11-25T07:58:47.098Z,23.87
2018-11-25T08:01:31.713Z,23.70
2018-11-25T08:04:09.088Z,24.33
2018-11-25T08:06:43.255Z,22.83
2018-11-25T08:09:32.172Z,26.20
2018-11-25T08:12:06.268Z,22.50
2018-11-25T08:14:54.767Z,25.20
2018-11-25T08:17:34.305Z,23.93
2018-11-25T08:20:15.357Z,24.30
2018-11-25T08:23:05.628Z,24.53
2018-11-25T08:25:48.711Z,24.20
2018-11-25T08:28:36.461Z,26.80
2018-11-25T08:31:14.250Z,25.30
2018-11-25T08:33:51.556Z,23.93
2018-11-25T08:36:22.879Z,23.23
2018-11-25T08:38:58.042Z,26.03
2018-11-25T08:41:36.465Z,30.02
2018-11-25T08:44:33.497Z,28.80
2018-11-25T08:47:25.028Z,32.67
2018-11-25T08:50:16.478Z,29.50
2018-11-25T08:53:03.280Z,29.43
2018-11-25T08:55:45.814Z,31.20
2018-11-25T08:58:25.097Z,29.57
2018-11-25T09:01:03.488Z,30.83
2018-11-25T09:04:01.319Z,31.30
2018-11-25T09:06:42.831Z,31.30
2018-11-25T09:09:25.697Z,30.20
2018-11-25T09:12:16.151Z,30.90
2018-11-25T09:15:01.370Z,31.90
2018-11-25T09:17:37.980Z,27.30
2018-11-25T09:20:29.608Z,28.87
2018-11-25T09:23:05.428Z,28.80
2018-11-25T09:25:53.560Z,29.83
2018-11-25T09:28:35.310Z,29.37
2018-11-25T09:31:16.510Z,30.25
2018-11-25T09:33:56.770Z,32.73
2018-11-25T09:36:33.151Z,29.50
2018-11-25T09:39:15.155Z,31.07
2018-11-25T09:41:55.457Z,27.63
2018-11-25T09:44:31.676Z,29.07
2018-11-25T09:47:11.899Z,30.17
2018-11-25T09:49:45.220Z,31.70
2018-11-25T09:52:24.288Z,29.83
2018-11-25T09:55:02.024Z,32.80
2018-11-25T09:57:36.893Z,34.50
2018-11-25T10:00:23.520Z,30.93
2018-11-25T10:02:58.310Z,30.70
2018-11-25T10:05:36.788Z,32.70
2018-11-25T10:08:10.984Z,32.93
2018-11-25T10:10:52.468Z,34.40
2018-11-25T10:13:26.348Z,34.37
2018-11-25T10:16:04.464Z,33.30
2018-11-25T10:18:48.068Z,32.57
2018-11-25T10:21:33.989Z,35.78
2018-11-25T10:24:16.916Z,35.37
2018-11-25T10:26:57.356Z,32.20
2018-11-25T10:29:35.531Z,39.20
2018-11-25T10:32:25.647Z,36.33
2018-11-25T10:35:02.148Z,37.50
2018-11-25T10:37:44.810Z,35.87
2018-11-25T10:40:20.606Z,38.27
2018-11-25T10:42:59.115Z,38.57
2018-11-25T10:45:38.758Z,36.37
2018-11-25T10:48:12.748Z,36.30
2018-11-25T10:51:01.458Z,35.57
2018-11-25T10:53:40.554Z,36.27
2018-11-25T10:56:25.626Z,41.73
2018-11-25T10:59:09.218Z,38.13
2018-11-25T11:02:10.687Z,36.47
2018-11-25T11:05:00.866Z,37.47
2018-11-25T11:07:43.331Z,39.10
2018-11-25T11:10:43.298Z,37.83
2018-11-25T11:13:35.541Z,37.47
2018-11-25T11:16:15.500Z,36.70
2018-11-25T11:19:20.268Z,35.70
2018-11-25T11:22:02.671Z,35.30
2018-11-25T11:24:49.089Z,34.93
2018-11-25T11:27:32.341Z,33.60
2018-11-25T11:33:23.018Z,33.30
2018-11-25T11:44:26.538Z,33.13
2018-11-25T11:47:28.216Z,38.33
2018-11-25T11:50:23.459Z,40.25
2018-11-25T11:53:41.298Z,34.90
2018-11-25T11:56:17.597Z,33.13
2018-11-25T12:01:54.750Z,32.33
2018-11-25T12:04:37.934Z,39.13
2018-11-25T12:10:35.929Z,36.50
2018-11-25T12:13:24.648Z,34.33
2018-11-25T12:16:21.144Z,32.33
2018-11-25T12:19:16.134Z,33.00
2018-11-25T12:22:24.525Z,33.33
2018-11-25T12:25:10.091Z,31.63
2018-11-25T12:27:50.833Z,30.17
2018-11-25T12:33:21.718Z,29.13
2018-11-25T12:36:11.299Z,31.80
2018-11-25T12:38:53.170Z,31.77
2018-11-25T12:41:34.700Z,30.50
2018-11-25T12:44:13.725Z,28.33
2018-11-25T12:46:56.219Z,31.90
2018-11-25T12:49:42.909Z,29.73
2018-11-25T12:52:14.802Z,28.23
2018-11-25T12:54:55.890Z,34.43
2018-11-25T12:57:43.617Z,30.40
2018-11-25T13:00:27.351Z,27.07
2018-11-25T13:03:05.251Z,30.07
2018-11-25T13:05:52.712Z,32.10
2018-11-25T13:08:38.759Z,28.17
2018-11-25T13:11:23.739Z,28.87
2018-11-25T13:14:04.710Z,27.87
2018-11-25T13:16:50.094Z,28.33
2018-11-25T13:19:32.008Z,34.70
2018-11-25T13:22:11.548Z,29.13
2018-11-25T13:24:59.532Z,32.07
2018-11-25T13:27:51.456Z,34.80
2018-11-25T13:30:37.010Z,34.78
2018-11-25T13:38:47.922Z,36.20
2018-11-25T13:41:31.756Z,32.90
2018-11-25T13:44:14.368Z,30.77
2018-11-25T13:47:01.325Z,38.08
2018-11-25T13:50:17.228Z,36.90
2018-11-25T13:53:12.632Z,34.30
2018-11-25T13:58:54.459Z,37.90
2018-11-25T14:04:36.778Z,42.07
2018-11-25T14:07:24.166Z,39.60
2018-11-25T14:10:09.117Z,40.50
2018-11-25T14:13:07.492Z,41.93
2018-11-25T14:15:54.473Z,39.33
2018-11-25T14:19:00.578Z,43.90
2018-11-25T14:26:48.880Z,40.20
2018-11-25T14:29:26.018Z,42.23
2018-11-25T14:32:15.729Z,39.33
2018-11-25T14:38:09.511Z,46.53
2018-11-25T14:41:01.917Z,41.03
2018-11-25T14:43:44.338Z,44.47
2018-11-25T14:46:26.879Z,44.77
2018-11-25T14:49:15.885Z,42.33
2018-11-25T14:55:20.800Z,40.87
2018-11-25T14:58:17.467Z,43.77
2018-11-25T15:01:32.772Z,44.20
2018-11-25T15:04:26.968Z,46.00
2018-11-25T15:07:24.870Z,44.77
2018-11-25T15:10:11.591Z,43.10
2018-11-25T15:13:15.658Z,44.40
2018-11-25T15:24:02.211Z,45.83
2018-11-25T15:27:04.302Z,43.87
2018-11-25T15:32:51.802Z,50.57
2018-11-25T15:35:37.197Z,46.67
2018-11-25T15:38:27.898Z,42.47
2018-11-25T15:41:14.846Z,43.67
2018-11-25T15:47:50.433Z,47.65
2018-11-25T15:50:44.060Z,43.33
2018-11-25T15:53:34.550Z,44.17
2018-11-25T15:56:17.807Z,39.97
2018-11-25T15:58:59.168Z,36.50
2018-11-25T16:01:53.618Z,39.67
2018-11-25T16:07:21.921Z,38.70
2018-11-25T16:10:41.669Z,37.77
2018-11-25T16:17:06.060Z,35.43
2018-11-25T16:20:17.861Z,35.00
2018-11-25T16:23:15.848Z,33.97
2018-11-25T16:26:10.162Z,33.07
2018-11-25T16:29:22.032Z,35.47
2018-11-25T16:32:03.515Z,35.30
2018-11-25T16:39:40.877Z,35.23
2018-11-25T16:45:17.643Z,32.00
2018-11-25T16:47:59.748Z,30.47
2018-11-25T16:50:42.021Z,30.70
2018-11-25T16:53:32.517Z,33.90
2018-11-25T16:56:32.512Z,31.73
2018-11-25T16:59:18.943Z,32.70
2018-11-25T17:05:37.084Z,27.83
2018-11-25T17:08:30.858Z,27.17
2018-11-25T17:11:14.088Z,29.03
2018-11-25T17:14:33.589Z,30.63
2018-11-25T17:20:34.248Z,36.33
2018-11-25T17:27:28.128Z,26.30
2018-11-25T17:30:21.348Z,27.00
2018-11-25T17:33:18.372Z,27.43
2018-11-25T17:36:03.719Z,30.07
2018-11-25T17:39:09.303Z,29.43
2018-11-25T17:41:54.415Z,32.27
2018-11-25T17:44:56.372Z,34.30
2018-11-25T17:47:43.119Z,31.33
2018-11-25T17:53:12.756Z,40.60
2018-11-25T17:55:59.413Z,33.20
2018-11-25T17:58:54.810Z,30.10
2018-11-25T18:01:46.572Z,32.30
2018-11-25T18:04:34.325Z,33.53
2018-11-25T18:10:03.688Z,34.80
2018-11-25T18:24:15.039Z,37.30
2018-11-25T18:30:02.925Z,36.23
2018-11-25T18:32:54.123Z,31.33
2018-11-25T18:42:05.758Z,31.30
2018-11-25T18:48:00.155Z,30.30
2018-11-25T18:50:53.921Z,29.67
2018-11-25T18:53:35.873Z,29.30
2018-11-25T18:56:28.923Z,27.10
2018-11-25T19:02:32.297Z,27.83
2018-11-25T19:05:16.104Z,28.77
2018-11-25T19:08:13.558Z,29.63
2018-11-25T19:13:56.368Z,28.00
2018-11-25T19:16:55.421Z,17.70
2018-11-25T19:19:53.468Z,34.48
2018-11-25T19:22:55.879Z,30.93
2018-11-25T19:25:48.279Z,26.40
2018-11-25T19:28:40.852Z,27.87
2018-11-25T19:32:34.877Z,23.97
2018-11-25T19:35:20.028Z,26.50
2018-11-25T19:37:59.424Z,23.33
2018-11-25T19:40:37.273Z,23.63
2018-11-25T19:43:19.883Z,28.03
2018-11-25T19:45:56.643Z,27.27
2018-11-25T19:48:44.128Z,32.15
2018-11-25T19:51:31.518Z,30.80
2018-11-25T19:57:01.951Z,31.60
2018-11-25T19:59:49.487Z,30.50
2018-11-25T20:02:34.678Z,33.87
2018-11-25T20:05:11.286Z,39.13
2018-11-25T20:07:47.846Z,33.10
2018-11-25T20:13:16.964Z,30.50
2018-11-25T20:16:07.126Z,32.00
2018-11-25T20:18:44.021Z,32.93
2018-11-25T20:21:25.170Z,30.57
2018-11-25T20:26:51.077Z,33.37
2018-11-25T20:29:28.571Z,34.37
2018-11-25T20:32:16.058Z,35.28
2018-11-25T20:35:13.117Z,39.13
2018-11-25T20:37:57.146Z,36.50
2018-11-25T20:40:37.698Z,34.73
2018-11-25T20:43:24.759Z,35.03
2018-11-25T20:46:03.023Z,33.70
2018-11-25T20:48:48.683Z,37.20
2018-11-25T20:51:31.193Z,37.43
2018-11-25T20:54:26.321Z,35.50
2018-11-25T20:57:08.335Z,34.60
2018-11-25T21:00:07.658Z,33.80
2018-11-25T21:02:50.991Z,33.90
2018-11-25T21:05:34.938Z,33.87
2018-11-25T21:11:14.778Z,33.83
2018-11-25T21:14:00.619Z,36.17
2018-11-25T21:16:41.916Z,51.03
2018-11-25T21:19:26.528Z,37.28
2018-11-25T21:22:14.705Z,38.17
2018-11-25T21:25:01.351Z,34.30
2018-11-25T21:27:41.717Z,37.70
2018-11-25T21:30:22.566Z,36.57
2018-11-25T21:33:09.529Z,36.20
2018-11-25T21:39:18.737Z,35.10
2018-11-25T21:42:58.186Z,38.67
2018-11-25T21:45:34.683Z,37.83
2018-11-25T21:48:10.484Z,35.43
2018-11-25T21:50:48.446Z,36.50
2018-11-25T21:53:33.927Z,39.77
2018-11-25T21:56:20.857Z,39.40
2018-11-25T21:58:57.373Z,38.83
2018-11-25T22:01:33.728Z,37.10
2018-11-25T22:04:07.074Z,39.33
2018-11-25T22:06:42.856Z,38.30
2018-11-25T22:09:15.839Z,41.37
2018-11-25T22:11:51.390Z,42.80
2018-11-25T22:14:29.374Z,41.20
2018-11-25T22:17:02.633Z,38.73
2018-11-25T22:19:39.466Z,41.30
2018-11-25T22:22:21.691Z,41.27
2018-11-25T22:25:03.427Z,41.73
2018-11-25T22:27:37.529Z,38.87
2018-11-25T22:30:31.287Z,37.40
2018-11-25T22:33:07.530Z,44.63
2018-11-25T22:35:39.893Z,43.37
2018-11-25T22:38:13.556Z,38.90
2018-11-25T22:40:48.430Z,41.77
2018-11-25T22:43:21.882Z,40.10
2018-11-25T22:45:53.070Z,47.23
2018-11-25T22:48:24.597Z,40.50
2018-11-25T22:51:03.813Z,43.60
2018-11-25T22:53:38.239Z,43.30
2018-11-25T22:56:15.565Z,41.53
2018-11-25T22:58:53.822Z,45.57
2018-11-25T23:01:29.709Z,42.10
2018-11-25T23:04:11.459Z,45.53
2018-11-25T23:07:00.989Z,40.63
2018-11-25T23:09:43.801Z,42.20
2018-11-25T23:12:16.808Z,44.80
2018-11-25T23:14:50.060Z,41.40
2018-11-25T23:17:25.097Z,39.67
2018-11-25T23:20:01.199Z,39.60
2018-11-25T23:22:36.885Z,35.33
2018-11-25T23:25:13.126Z,40.77
2018-11-25T23:27:44.368Z,40.27
2018-11-25T23:30:21.046Z,42.83
2018-11-25T23:32:54.164Z,37.53
2018-11-25T23:35:28.547Z,42.67
2018-11-25T23:38:00.892Z,36.17
2018-11-25T23:40:32.218Z,38.10
2018-11-25T23:43:03.765Z,39.10
2018-11-25T23:45:35.987Z,39.40
2018-11-25T23:48:10.006Z,36.97
2018-11-25T23:50:43.443Z,37.73
2018-11-25T23:53:17.206Z,38.33
2018-11-25T23:55:53.169Z,35.97
2018-11-25T23:58:25.124Z,43.30
